EGKK/LGW METAR and TAF weather

Enter ICAO airport designator
Station Type Date Time Source
EGKK METAR 2020/01/22 12:20 UTC NOAA

EGKK 221220Z VRB02KT 2000 BR SCT004 BKN006 OVC016 06/06 Q1037


Station Type Date Time Source
EGKK Decoded METAR 2020/01/22 12:20 UTC NOAA

London / Gatwick Airport, United Kingdom (EGKK) 51-09N 000-11W 0M
Jan 22, 2020 - 07:20 AM EST / 2020.01.22 1220 UTC
Wind: Variable at 2 MPH (2 KT):0
Visibility: 1 mile(s):0
Sky conditions: overcast
Weather: mist
Temperature: 42 F (6 C)
Dew Point: 42 F (6 C)
Relative Humidity: 100%
Pressure (altimeter): 30.62 in. Hg (1037 hPa)
ob: EGKK 221220Z VRB02KT 2000 BR SCT004 BKN006 OVC016 06/06 Q1037
cycle: 12

Station Type Date Time Source
EGKK TAF 2020/01/22 12:14 UTC NOAA

TAF EGKK 221108Z 2212/2318 VRB03KT 2500 BR FEW004 BKN008 PROB40 2212/2213 BKN004
BECMG 2213/2216 6000 NSW
BECMG 2219/2222 3000 BR BKN003 PROB30
TEMPO 2300/2309 1200 -DZ BKN001
BECMG 2309/2312 8000 NSW BKN012 PROB30 2312/2318 4000 BR BKN006

Example: see airport list